Time;durP1;ratioP1;P1;durP2;ratioP2;P2;SDS_P1;SDS_P2;PMS_P1;PMS_P2;Temp;Humidity;BMP_temperature;BMP_pressure;BME280_temperature;BME280_humidity;BME280_pressure;Samples;Min_cycle;Max_cycle;Signal;HPM_P1;HPM_P2
2022/03/03 00:00:22;;;;;;;;;66.75;53.50;;;;;11.69;51.81;101285.78;5018937;28;47667;-76
2022/03/03 00:02:47;;;;;;;;;72.50;57.50;;;;;11.77;52.08;101288.56;5021506;28;45644;-75
2022/03/03 00:05:14;;;;;;;;;71.00;55.75;;;;;11.78;52.05;101279.63;5022072;28;45440;-74
2022/03/03 00:07:40;;;;;;;;;66.50;54.00;;;;;11.88;52.21;101287.66;5033194;28;45558;-75
2022/03/03 00:10:06;;;;;;;;;72.25;55.75;;;;;11.94;51.81;101299.56;5020746;28;48318;-76
2022/03/03 00:12:32;;;;;;;;;72.00;56.00;;;;;11.87;52.07;101284.13;5016500;28;45402;-75
2022/03/03 00:14:57;;;;;;;;;69.00;55.25;;;;;11.99;51.87;101292.81;5016847;28;45289;-74
2022/03/03 00:17:23;;;;;;;;;76.50;61.50;;;;;11.96;52.16;101286.94;5023413;28;45550;-76
2022/03/03 00:19:48;;;;;;;;;74.75;64.00;;;;;11.84;52.19;101278.25;5028614;28;46312;-73
2022/03/03 00:22:17;;;;;;;;;69.75;59.00;;;;;11.81;52.57;101290.03;5027988;28;46290;-76
2022/03/03 00:24:43;;;;;;;;;71.75;60.25;;;;;11.73;52.46;101270.34;5027000;28;45482;-76
2022/03/03 00:27:08;;;;;;;;;74.75;61.00;;;;;11.67;52.78;101270.91;5031697;28;45365;-76
2022/03/03 00:29:34;;;;;;;;;73.00;59.50;;;;;11.65;52.63;101273.72;5024742;28;45892;-75
2022/03/03 00:32:00;;;;;;;;;72.00;56.50;;;;;11.27;53.01;101226.56;5027979;28;45572;-76
2022/03/03 00:34:26;;;;;;;;;76.50;63.25;;;;;11.46;53.60;101268.34;5027591;28;45584;-73
2022/03/03 00:36:51;;;;;;;;;76.50;64.50;;;;;11.46;53.40;101281.66;5037683;28;45320;-75
2022/03/03 00:39:17;;;;;;;;;74.00;62.25;;;;;11.49;53.61;101289.38;5038200;28;48354;-76
2022/03/03 00:41:42;;;;;;;;;69.00;57.25;;;;;11.49;53.11;101270.72;5034913;28;46505;-75
2022/03/03 00:44:09;;;;;;;;;73.50;60.00;;;;;11.57;53.23;101278.88;5018727;28;45479;-78
2022/03/03 00:46:38;;;;;;;;;70.25;58.25;;;;;11.71;52.83;101291.78;5034717;28;45273;-76
2022/03/03 00:49:03;;;;;;;;;72.50;59.50;;;;;11.59;53.25;101285.72;5025046;28;45470;-75
2022/03/03 00:51:29;;;;;;;;;75.75;62.75;;;;;9.60;53.40;100961.22;5023791;28;45395;-74
2022/03/03 00:53:56;;;;;;;;;76.25;60.00;;;;;11.67;53.04;101301.03;5020851;28;45247;-74
2022/03/03 00:56:21;;;;;;;;;76.25;64.75;;;;;11.63;53.08;101294.31;5026357;28;45294;-73
2022/03/03 00:58:47;;;;;;;;;73.00;63.25;;;;;10.96;52.91;101175.19;5022412;28;48740;-73
2022/03/03 01:01:13;;;;;;;;;71.25;58.75;;;;;11.77;52.91;101301.03;5030816;28;45289;-74
2022/03/03 01:03:39;;;;;;;;;75.25;62.75;;;;;11.61;52.67;101274.94;5034530;28;45355;-74
2022/03/03 01:06:04;;;;;;;;;70.75;57.00;;;;;11.79;52.88;101297.28;5024911;28;45600;-73
2022/03/03 01:08:30;;;;;;;;;77.50;63.50;;;;;11.79;52.69;101291.13;5018997;28;47465;-73
2022/03/03 01:10:55;;;;;;;;;75.00;61.00;;;;;11.81;52.89;101287.38;5018884;28;45340;-75
2022/03/03 01:13:22;;;;;;;;;79.00;60.75;;;;;11.68;52.64;101276.09;5018081;28;45267;-74
2022/03/03 01:15:48;;;;;;;;;71.75;59.25;;;;;11.81;52.45;101306.03;5019491;28;45494;-74
2022/03/03 01:18:14;;;;;;;;;75.00;60.50;;;;;11.70;52.67;101281.28;5034089;28;48829;-74
2022/03/03 01:20:39;;;;;;;;;75.00;62.50;;;;;11.77;52.75;101301.88;5033253;28;45367;-76
2022/03/03 01:23:05;;;;;;;;;75.25;61.75;;;;;11.76;52.80;101302.88;5019024;28;45316;-75
2022/03/03 01:25:30;;;;;;;;;77.25;65.75;;;;;11.72;52.45;101290.81;5027038;28;45295;-75
2022/03/03 01:27:56;;;;;;;;;70.50;57.50;;;;;11.70;52.36;101279.47;5025611;28;48420;-76
2022/03/03 01:30:22;;;;;;;;;71.00;54.75;;;;;11.75;52.08;101285.22;5025985;28;45503;-76
2022/03/03 01:32:48;;;;;;;;;75.00;62.50;;;;;11.75;52.47;101279.03;5017857;28;45349;-75
2022/03/03 01:35:13;;;;;;;;;73.75;62.25;;;;;11.65;52.67;101257.72;5035445;28;45602;-75
2022/03/03 01:37:39;;;;;;;;;75.00;61.00;;;;;11.69;52.74;101267.13;5037421;28;48148;-74
2022/03/03 01:40:05;;;;;;;;;70.75;57.50;;;;;11.61;52.81;101248.31;5019394;28;45436;-78
2022/03/03 01:42:31;;;;;;;;;71.50;61.50;;;;;11.68;52.48;101273.44;5017739;28;45199;-75
2022/03/03 01:44:56;;;;;;;;;78.75;66.00;;;;;11.65;52.68;101263.06;5017852;28;45245;-74
2022/03/03 01:47:25;;;;;;;;;75.25;63.00;;;;;11.73;52.86;101275.66;5030874;28;47372;-75
2022/03/03 01:49:53;;;;;;;;;71.50;57.75;;;;;11.74;52.26;101275.53;5017449;28;45561;-73
2022/03/03 01:52:19;;;;;;;;;77.75;64.25;;;;;11.55;52.65;101241.72;5033731;28;45353;-75
2022/03/03 01:54:44;;;;;;;;;73.50;57.75;;;;;11.71;52.69;101267.81;5029984;28;45166;-74
2022/03/03 01:57:11;;;;;;;;;69.25;56.00;;;;;11.77;52.57;101267.25;5021226;28;47552;-75
2022/03/03 01:59:38;;;;;;;;;76.50;64.25;;;;;11.84;52.48;101267.59;5027623;28;45401;-75
2022/03/03 02:02:06;;;;;;;;;71.25;59.00;;;;;11.74;52.54;101245.38;5037509;28;45336;-76
2022/03/03 02:04:32;;;;;;;;;74.00;61.25;;;;;11.80;52.26;101251.03;5020278;28;46157;-75
2022/03/03 02:06:58;;;;;;;;;74.50;59.75;;;;;11.91;52.66;101265.22;5024604;28;46875;-74
2022/03/03 02:09:24;;;;;;;;;69.00;55.50;;;;;11.52;52.18;101195.91;5018420;28;45171;-75
2022/03/03 02:11:50;;;;;;;;;74.25;61.25;;;;;11.97;52.29;101267.31;5025032;28;45361;-74
2022/03/03 02:14:15;;;;;;;;;73.00;61.25;;;;;11.76;52.16;101217.63;5029820;28;45294;-75
2022/03/03 02:16:40;;;;;;;;;72.25;57.50;;;;;11.84;52.66;101230.31;5018308;28;47294;-75
2022/03/03 02:19:07;;;;;;;;;67.75;54.00;;;;;11.95;52.79;101248.78;5031775;28;45371;-76
2022/03/03 02:21:33;;;;;;;;;70.25;55.50;;;;;12.03;52.75;101254.28;5018311;28;45607;-75
2022/03/03 02:24:00;;;;;;;;;65.75;53.50;;;;;12.12;52.36;101258.75;5020896;28;45558;-75
2022/03/03 02:26:25;;;;;;;;;65.75;52.50;;;;;11.54;52.83;101165.47;5021066;28;49534;-74
2022/03/03 02:28:53;;;;;;;;;67.25;53.75;;;;;12.05;52.39;101254.13;5032136;28;46090;-73
2022/03/03 02:31:20;;;;;;;;;66.50;52.50;;;;;11.58;52.49;101166.03;5023033;28;45490;-74
2022/03/03 02:33:46;;;;;;;;;67.25;52.50;;;;;12.03;53.06;101229.44;5019732;28;45330;-73
2022/03/03 02:36:17;;;;;;;;;65.00;52.00;;;;;12.20;52.69;101252.69;5017746;28;46586;-75
2022/03/03 02:38:43;;;;;;;;;71.50;57.00;;;;;12.22;52.58;101247.25;5018114;28;45276;-74
2022/03/03 02:41:08;;;;;;;;;68.75;54.00;;;;;12.24;53.01;101256.78;5017016;28;45360;-73
2022/03/03 02:43:33;;;;;;;;;66.25;53.25;;;;;12.15;53.10;101241.63;5048380;28;45969;-76
2022/03/03 02:46:01;;;;;;;;;67.50;52.50;;;;;12.13;53.72;101219.59;5017586;28;47465;-76
2022/03/03 02:48:27;;;;;;;;;68.75;53.25;;;;;12.12;53.21;101210.78;5016830;28;45358;-78
2022/03/03 02:50:55;;;;;;;;;67.50;52.25;;;;;12.28;53.43;101238.69;5017318;28;45541;-74
2022/03/03 02:53:21;;;;;;;;;66.25;52.25;;;;;12.31;53.50;101236.56;5026380;28;45402;-73
2022/03/03 02:55:46;;;;;;;;;58.50;46.00;;;;;12.30;54.33;101232.22;5029453;28;48291;-76
2022/03/03 02:58:12;;;;;;;;;57.50;45.75;;;;;12.25;54.49;101225.63;5025635;28;45378;-74
2022/03/03 03:00:43;;;;;;;;;58.50;48.00;;;;;12.27;54.53;101221.00;5034570;28;45246;-73
2022/03/03 03:03:09;;;;;;;;;58.50;46.75;;;;;12.25;55.41;101218.47;5027072;28;45599;-75
2022/03/03 03:05:36;;;;;;;;;60.00;47.50;;;;;12.27;55.42;101232.50;5017647;28;47429;-75
2022/03/03 03:08:02;;;;;;;;;62.25;50.00;;;;;12.22;55.62;101218.78;5029253;28;45824;-73
2022/03/03 03:10:27;;;;;;;;;61.50;48.75;;;;;12.21;55.28;101211.72;5032292;28;45462;-74
2022/03/03 03:12:53;;;;;;;;;66.75;51.00;;;;;12.25;54.70;101222.97;5020666;28;46603;-74
2022/03/03 03:15:19;;;;;;;;;73.00;60.75;;;;;12.10;54.04;101210.06;5027244;28;47609;-74
2022/03/03 03:17:48;;;;;;;;;72.50;57.00;;;;;12.06;53.93;101213.19;5036892;28;45780;-78
2022/03/03 03:20:13;;;;;;;;;70.50;53.75;;;;;12.10;54.51;101211.91;5034736;28;45584;-75
2022/03/03 03:22:39;;;;;;;;;65.75;52.75;;;;;11.93;54.67;101192.13;5036151;28;45524;-75
2022/03/03 03:25:08;;;;;;;;;72.25;59.25;;;;;12.02;54.19;101207.28;5032246;28;47683;-75
2022/03/03 03:27:35;;;;;;;;;73.00;58.75;;;;;12.12;54.68;101204.59;5032128;28;46179;-74
2022/03/03 03:30:01;;;;;;;;;69.00;54.75;;;;;12.00;54.19;101187.06;5018913;28;45528;-75
2022/03/03 03:32:26;;;;;;;;;67.00;52.75;;;;;11.32;54.55;101066.41;5032156;28;45368;-75
2022/03/03 03:34:51;;;;;;;;;71.50;56.50;;;;;12.05;54.26;101182.19;5015643;28;47548;-76
2022/03/03 03:37:17;;;;;;;;;65.25;53.25;;;;;12.11;54.56;101189.59;5034594;28;45590;-73
2022/03/03 03:39:43;;;;;;;;;69.00;54.25;;;;;12.17;54.79;101191.69;5032115;28;45380;-74
2022/03/03 03:42:08;;;;;;;;;58.75;46.75;;;;;12.24;55.58;101191.97;5033829;28;45643;-74
2022/03/03 03:44:35;;;;;;;;;66.25;52.00;;;;;12.17;55.40;101175.69;5033055;28;45896;-76
2022/03/03 03:47:01;;;;;;;;;64.00;51.00;;;;;12.16;55.72;101169.50;5016985;28;45570;-75
2022/03/03 03:49:27;;;;;;;;;58.00;46.50;;;;;12.32;55.53;101198.25;5021334;28;45593;-74
2022/03/03 03:51:52;;;;;;;;;60.00;48.25;;;;;12.27;55.98;101179.19;5031994;28;45675;-75
2022/03/03 03:54:18;;;;;;;;;52.00;43.25;;;;;12.20;55.94;101167.41;5031579;28;47841;-74
2022/03/03 03:56:43;;;;;;;;;64.75;51.00;;;;;11.91;55.66;101121.34;5027318;28;45535;-76
2022/03/03 03:59:09;;;;;;;;;59.50;48.75;;;;;12.26;55.80;101171.34;5031981;28;45178;-74
2022/03/03 04:01:34;;;;;;;;;59.75;48.25;;;;;12.04;56.35;101132.53;5020001;28;45546;-75
2022/03/03 04:03:59;;;;;;;;;60.00;46.75;;;;;12.15;56.70;101153.66;5034971;28;48008;-74
2022/03/03 04:06:25;;;;;;;;;59.75;48.25;;;;;12.35;56.78;101181.97;5034105;28;46423;-76
2022/03/03 04:08:50;;;;;;;;;57.00;46.50;;;;;12.28;57.20;101162.19;5016833;28;45610;-76
2022/03/03 04:11:16;;;;;;;;;59.25;46.75;;;;;12.32;57.30;101182.25;5025182;28;45301;-73
2022/03/03 04:13:41;;;;;;;;;53.00;43.75;;;;;12.29;57.90;101168.38;5035099;28;47879;-74
2022/03/03 04:16:07;;;;;;;;;55.75;45.50;;;;;12.07;57.88;101135.75;5035257;28;45306;-74
2022/03/03 04:18:32;;;;;;;;;55.25;44.25;;;;;11.83;58.36;101100.75;5019227;28;45554;-74
2022/03/03 04:20:57;;;;;;;;;55.50;43.25;;;;;12.22;59.15;101164.63;5020380;28;45260;-74
2022/03/03 04:23:23;;;;;;;;;51.50;43.25;;;;;12.17;59.33;101162.34;5020564;28;45359;-74
2022/03/03 04:25:48;;;;;;;;;54.25;42.25;;;;;12.17;58.82;101162.34;5018638;28;45496;-75
2022/03/03 04:28:14;;;;;;;;;52.00;42.25;;;;;11.81;58.76;101097.34;5026974;28;45614;-75
2022/03/03 04:30:39;;;;;;;;;55.00;43.25;;;;;12.09;58.67;101130.25;5034395;28;45436;-74
2022/03/03 04:33:05;;;;;;;;;55.50;42.25;;;;;12.15;58.86;101132.34;5018308;28;48070;-74
2022/03/03 04:35:30;;;;;;;;;55.50;45.25;;;;;12.26;58.73;101150.84;5019698;28;45367;-73
2022/03/03 04:37:56;;;;;;;;;55.00;43.25;;;;;12.20;58.45;101124.75;5021147;28;45393;-75
2022/03/03 04:40:21;;;;;;;;;48.00;41.00;;;;;12.30;58.62;101148.72;5031198;28;45447;-75
2022/03/03 04:42:49;;;;;;;;;55.50;44.25;;;;;12.30;58.56;101146.91;5027419;28;45423;-75
2022/03/03 04:45:15;;;;;;;;;57.50;44.75;;;;;12.21;58.30;101125.59;5019960;28;45248;-75
2022/03/03 04:47:40;;;;;;;;;60.75;48.50;;;;;12.34;58.09;101144.78;5027861;28;45409;-74
2022/03/03 04:50:06;;;;;;;;;57.00;46.75;;;;;12.35;58.42;101147.28;5022811;28;45388;-75
2022/03/03 04:52:32;;;;;;;;;53.00;43.75;;;;;12.33;58.65;101135.09;5026100;28;47912;-77
2022/03/03 04:54:57;;;;;;;;;50.75;43.00;;;;;12.06;58.68;101088.75;5027593;28;45228;-76
2022/03/03 04:57:23;;;;;;;;;54.00;43.00;;;;;12.24;59.31;101120.84;5019532;28;45440;-75
2022/03/03 04:59:48;;;;;;;;;50.75;42.25;;;;;12.30;59.22;101128.22;5020019;28;45559;-75
2022/03/03 05:02:13;;;;;;;;;51.00;42.25;;;;;12.27;59.88;101125.88;5034433;28;47536;-73
2022/03/03 05:04:39;;;;;;;;;50.00;41.50;;;;;12.10;60.38;101102.63;5034890;28;46167;-73
2022/03/03 05:07:04;;;;;;;;;50.50;42.25;;;;;12.15;60.07;101119.84;5026031;28;45365;-74
2022/03/03 05:09:30;;;;;;;;;51.25;40.25;;;;;12.16;60.40;101116.19;5019614;28;45562;-73
2022/03/03 05:11:57;;;;;;;;;55.00;42.50;;;;;12.24;60.50;101120.00;5019671;28;46708;-73
2022/03/03 05:14:23;;;;;;;;;49.50;41.25;;;;;12.28;61.04;101124.88;5024372;28;46316;-74
2022/03/03 05:16:48;;;;;;;;;53.75;42.25;;;;;12.28;61.08;101135.53;5021838;28;45245;-75
2022/03/03 05:19:14;;;;;;;;;52.25;42.00;;;;;12.07;61.94;101100.25;5024642;28;45253;-75
2022/03/03 05:21:39;;;;;;;;;49.75;41.00;;;;;12.22;61.31;101133.47;5021709;28;46082;-74
2022/03/03 05:24:05;;;;;;;;;46.00;38.50;;;;;12.23;61.59;101124.47;5029308;28;45270;-74
2022/03/03 05:26:30;;;;;;;;;53.00;44.00;;;;;12.21;61.18;101118.44;5036746;28;45250;-75
2022/03/03 05:28:56;;;;;;;;;50.00;40.50;;;;;12.20;61.36;101108.75;5022036;28;45287;-75
2022/03/03 05:31:21;;;;;;;;;51.50;42.25;;;;;11.82;60.99;101045.78;5031174;28;47212;-74
2022/03/03 05:33:47;;;;;;;;;53.25;44.00;;;;;12.14;60.95;101098.69;5034151;28;45317;-76
2022/03/03 05:36:13;;;;;;;;;55.25;44.75;;;;;12.08;61.44;101108.09;5026316;28;45334;-74
2022/03/03 05:38:40;;;;;;;;;53.25;44.00;;;;;12.06;60.98;101114.56;5034560;28;45587;-77
2022/03/03 05:41:06;;;;;;;;;51.25;42.00;;;;;12.13;61.23;101126.31;5028691;28;45941;-75
2022/03/03 05:43:32;;;;;;;;;55.25;43.25;;;;;12.06;61.16;101112.75;5024110;28;45276;-74
2022/03/03 05:45:58;;;;;;;;;53.25;43.50;;;;;12.00;61.50;101101.81;5018316;28;45400;-73
2022/03/03 05:48:26;;;;;;;;;54.25;44.25;;;;;11.93;61.44;101082.91;5036949;28;45341;-74
2022/03/03 05:50:52;;;;;;;;;56.25;44.75;;;;;12.18;61.75;101124.91;5037365;28;45840;-74
2022/03/03 05:53:18;;;;;;;;;50.75;41.00;;;;;12.02;61.85;101105.19;5038238;28;45310;-75
2022/03/03 05:56:05;;;;;;;;;51.75;41.25;;;;;11.95;61.55;101093.41;5021386;28;45534;-73
2022/03/03 05:58:44;;;;;;;;;54.00;45.00;;;;;11.99;61.68;101094.78;5017645;28;45427;-76
2022/03/03 06:01:11;;;;;;;;;52.00;42.00;;;;;12.21;61.95;101137.09;5033106;28;47412;-75
2022/03/03 06:03:38;;;;;;;;;47.25;37.75;;;;;12.16;61.66;101126.03;5016912;28;45474;-75
2022/03/03 06:06:16;;;;;;;;;51.25;41.75;;;;;11.38;62.37;101004.63;5035534;28;45417;-75
2022/03/03 06:09:03;;;;;;;;;51.25;43.00;;;;;12.05;62.52;101102.22;5036683;28;45490;-74
2022/03/03 06:11:29;;;;;;;;;52.00;43.00;;;;;12.06;62.58;101110.06;5027302;28;48464;-74
2022/03/03 06:14:06;;;;;;;;;54.00;43.00;;;;;11.24;62.60;100974.00;5027134;28;45220;-78
2022/03/03 06:16:32;;;;;;;;;49.75;42.00;;;;;12.05;63.15;101112.88;5025707;28;45339;-75
2022/03/03 06:18:59;;;;;;;;;55.50;43.25;;;;;12.09;63.25;101139.09;5033357;28;45183;-76
2022/03/03 06:21:25;;;;;;;;;51.25;41.00;;;;;12.02;63.58;101121.19;5031191;28;47302;-75
2022/03/03 06:23:51;;;;;;;;;54.75;44.00;;;;;11.58;63.03;101051.53;5032385;28;45319;-75
2022/03/03 06:26:19;;;;;;;;;56.50;43.25;;;;;12.10;63.00;101139.94;5018461;28;45466;-73
2022/03/03 06:28:46;;;;;;;;;50.25;40.50;;;;;11.79;63.16;101081.50;5031134;28;45547;-76
2022/03/03 06:31:13;;;;;;;;;49.75;40.25;;;;;12.13;63.19;101135.16;5020089;28;47221;-76
2022/03/03 06:33:39;;;;;;;;;57.75;42.50;;;;;12.14;63.72;101138.66;5015616;28;45626;-76
2022/03/03 06:36:04;;;;;;;;;52.75;43.50;;;;;12.10;63.69;101132.78;5032797;28;45467;-76
2022/03/03 06:38:30;;;;;;;;;52.25;42.00;;;;;12.08;62.77;101124.09;5032598;28;45448;-73
2022/03/03 06:40:57;;;;;;;;;52.50;42.75;;;;;12.00;63.41;101104.47;5031630;28;46298;-74
2022/03/03 06:43:29;;;;;;;;;25.50;22.50;;;;;12.11;63.41;101125.63;5029504;28;45331;-76
2022/03/03 06:45:58;;;;;;;;;54.00;44.00;;;;;12.20;63.07;101143.41;5033079;28;45434;-75
2022/03/03 06:48:25;;;;;;;;;54.50;43.75;;;;;12.22;63.33;101160.13;5031928;28;45280;-76
2022/03/03 06:50:55;;;;;;;;;55.00;45.00;;;;;12.23;63.49;101145.81;5023671;28;47057;-77
2022/03/03 06:53:30;;;;;;;;;47.00;38.50;;;;;12.18;63.67;101140.03;5032558;28;45696;-75
2022/03/03 06:56:08;;;;;;;;;53.50;44.00;;;;;12.15;63.67;101137.69;5016274;28;45420;-76
2022/03/03 06:58:35;;;;;;;;;52.50;41.00;;;;;12.22;63.13;101138.81;5015941;28;45303;-74
2022/03/03 07:01:12;;;;;;;;;16.50;13.50;;;;;12.11;63.17;101117.63;5015866;28;48540;-75
2022/03/03 07:03:41;;;;;;;;;55.50;43.25;;;;;12.03;63.49;101101.53;5017306;28;45450;-76
2022/03/03 07:06:06;;;;;;;;;50.25;42.50;;;;;12.12;63.42;101127.31;5019878;28;45562;-76
2022/03/03 07:08:33;;;;;;;;;53.25;43.75;;;;;11.69;63.39;101056.72;5027158;28;45719;-76
2022/03/03 07:10:59;;;;;;;;;46.50;39.00;;;;;12.22;63.41;101141.47;5035635;28;47902;-75
2022/03/03 07:13:24;;;;;;;;;53.00;41.75;;;;;12.29;63.38;101150.56;5032089;28;45625;-76
2022/03/03 07:15:55;;;;;;;;;56.75;45.25;;;;;12.34;63.53;101148.28;5024849;28;45391;-76
2022/03/03 07:18:34;;;;;;;;;48.00;41.00;;;;;12.35;63.41;101152.63;5028317;28;45428;-76
2022/03/03 07:21:09;;;;;;;;;56.00;44.25;;;;;12.19;63.89;101129.25;5029304;28;47830;-74
2022/03/03 07:23:37;;;;;;;;;62.25;49.00;;;;;12.13;64.07;101115.66;5023458;28;45368;-73
2022/03/03 07:26:06;;;;;;;;;53.75;44.50;;;;;12.14;63.09;101115.50;5026060;28;45481;-76
2022/03/03 07:28:32;;;;;;;;;55.75;46.25;;;;;11.44;63.50;101012.91;5032172;28;45564;-75
2022/03/03 07:31:02;;;;;;;;;291.60;266.00;;;;;12.24;64.25;101139.50;5031791;28;48568;-72
2022/03/03 07:33:46;;;;;;;;;55.75;43.75;;;;;11.88;63.71;101072.69;5023909;28;45713;-75
2022/03/03 07:36:18;;;;;;;;;55.75;45.00;;;;;12.32;63.21;101133.41;5018443;28;45375;-73
2022/03/03 07:38:54;;;;;;;;;56.00;43.75;;;;;11.84;63.64;101043.81;5031752;28;45525;-75
2022/03/03 07:41:21;;;;;;;;;56.50;44.00;;;;;12.36;63.39;101118.81;5020339;28;47401;-75
2022/03/03 07:43:48;;;;;;;;;55.00;44.50;;;;;12.63;63.34;101150.00;5034294;28;45530;-73
2022/03/03 07:46:14;;;;;;;;;56.00;45.00;;;;;12.53;63.24;101130.53;5031829;28;45540;-73
2022/03/03 07:48:45;;;;;;;;;53.00;43.25;;;;;12.25;63.03;101084.34;5030922;28;45534;-76
2022/03/03 07:51:11;;;;;;;;;58.50;45.50;;;;;12.46;62.97;101112.47;5037770;28;46052;-76
2022/03/03 07:53:37;;;;;;;;;54.00;43.50;;;;;12.64;62.71;101141.03;5020464;28;45825;-74
2022/03/03 07:56:04;;;;;;;;;53.00;42.25;;;;;12.70;62.95;101135.09;5015153;28;45649;-74
2022/03/03 07:58:33;;;;;;;;;52.75;43.25;;;;;12.36;62.57;101098.31;5015425;28;45646;-74
2022/03/03 08:01:00;;;;;;;;;53.25;43.25;;;;;12.73;62.57;101154.28;5024141;28;45710;-75
2022/03/03 08:03:26;;;;;;;;;53.00;44.25;;;;;12.74;62.65;101152.47;5027614;28;45491;-75
2022/03/03 08:06:01;;;;;;;;;57.00;45.00;;;;;12.77;62.39;101149.50;5029031;28;45352;-77
2022/03/03 08:08:28;;;;;;;;;56.50;45.00;;;;;12.72;62.83;101151.78;5036081;28;45668;-74
2022/03/03 08:11:02;;;;;;;;;56.75;45.25;;;;;12.74;62.45;101160.47;5031318;28;46514;-74
2022/03/03 08:13:29;;;;;;;;;59.00;43.50;;;;;12.57;62.63;101130.06;5015425;28;45282;-74
2022/03/03 08:15:55;;;;;;;;;56.00;44.75;;;;;12.31;62.93;101084.59;5024560;28;45665;-75
2022/03/03 08:18:21;;;;;;;;;56.50;45.75;;;;;12.67;62.48;101140.72;5020985;28;45690;-73
2022/03/03 08:20:46;;;;;;;;;58.25;44.25;;;;;12.79;62.92;101148.34;5031732;28;46312;-73
2022/03/03 08:23:12;;;;;;;;;56.25;45.00;;;;;12.82;62.74;101139.25;5035462;28;45402;-74
2022/03/03 08:25:38;;;;;;;;;58.25;45.00;;;;;12.74;62.10;101112.44;5019664;28;45381;-74
2022/03/03 08:28:06;;;;;;;;;52.50;43.25;;;;;12.95;62.12;101126.38;5024373;28;45440;-75
2022/03/03 08:30:32;;;;;;;;;58.00;45.25;;;;;13.10;62.38;101137.38;5016321;28;45917;-76
2022/03/03 08:33:18;;;;;;;;;53.00;43.25;;;;;13.16;61.69;101138.59;5022770;28;45576;-76
2022/03/03 08:35:59;;;;;;;;;56.75;44.50;;;;;13.05;61.54;101121.81;5018791;28;45530;-74
2022/03/03 08:38:41;;;;;;;;;55.00;42.75;;;;;13.28;61.66;101132.94;5019858;28;45500;-75
2022/03/03 08:41:07;;;;;;;;;52.75;42.50;;;;;13.38;61.27;101127.50;5023751;28;45449;-77
2022/03/03 08:43:33;;;;;;;;;55.75;46.00;;;;;13.45;61.26;101133.09;5030987;28;45484;-77
2022/03/03 08:46:07;;;;;;;;;52.50;43.50;;;;;12.98;61.31;101075.34;5025244;28;46544;-77
2022/03/03 08:48:33;;;;;;;;;55.75;44.25;;;;;13.24;61.44;101136.06;5023737;28;45545;-78
2022/03/03 08:51:03;;;;;;;;;58.25;46.00;;;;;13.22;62.14;101146.91;5017188;28;47049;-79
2022/03/03 08:53:29;;;;;;;;;57.75;45.00;;;;;12.93;61.97;101095.47;5034070;28;46280;-71
2022/03/03 08:55:54;;;;;;;;;56.75;45.75;;;;;13.26;61.81;101134.06;5021401;28;45448;-72
2022/03/03 08:58:21;;;;;;;;;56.25;45.75;;;;;13.45;61.12;101149.13;5022116;28;45594;-71
2022/03/03 09:00:48;;;;;;;;;56.25;46.25;;;;;13.00;61.11;101059.19;5029615;28;47308;-72
2022/03/03 09:03:15;;;;;;;;;53.75;44.00;;;;;13.64;60.72;101149.78;5030442;28;46382;-74
2022/03/03 09:05:41;;;;;;;;;54.00;43.75;;;;;13.23;60.56;101062.28;5023510;28;45300;-78
2022/03/03 09:08:07;;;;;;;;;56.25;46.00;;;;;13.75;60.02;101153.19;5037602;28;45720;-75
2022/03/03 09:10:34;;;;;;;;;55.00;44.00;;;;;13.75;60.14;101143.34;5032788;28;46965;-74
2022/03/03 09:13:00;;;;;;;;;54.75;44.50;;;;;13.92;59.65;101157.69;5029542;28;45361;-76
2022/03/03 09:15:26;;;;;;;;;57.00;43.75;;;;;13.98;59.65;101157.88;5032748;28;45570;-75
2022/03/03 09:17:58;;;;;;;;;54.50;44.00;;;;;13.97;59.50;101155.38;5021848;28;45622;-78
2022/03/03 09:20:23;;;;;;;;;58.00;46.00;;;;;13.55;59.77;101065.22;5025378;28;47558;-76
2022/03/03 09:22:49;;;;;;;;;60.25;47.25;;;;;13.92;59.54;101153.19;5023103;28;45447;-75
2022/03/03 09:25:20;;;;;;;;;55.25;45.50;;;;;13.89;59.51;101155.31;5022520;28;45762;-71
2022/03/03 09:27:46;;;;;;;;;56.50;45.00;;;;;13.82;60.10;101157.78;5029053;28;45572;-74
2022/03/03 09:30:13;;;;;;;;;58.75;46.75;;;;;13.79;60.06;101146.53;5017790;28;47022;-75
2022/03/03 09:32:39;;;;;;;;;54.50;43.75;;;;;13.91;59.69;101156.00;5021502;28;45471;-73
2022/03/03 09:35:06;;;;;;;;;51.50;41.00;;;;;13.83;59.72;101139.94;5034615;28;45371;-74
2022/03/03 09:37:31;;;;;;;;;54.75;44.50;;;;;13.92;59.62;101152.34;5019064;28;45453;-73
2022/03/03 09:39:57;;;;;;;;;58.00;45.75;;;;;13.97;59.56;101156.22;5025460;28;46731;-77
2022/03/03 09:42:22;;;;;;;;;58.50;45.75;;;;;13.97;59.26;101155.38;5030994;28;45584;-74
2022/03/03 09:44:48;;;;;;;;;55.00;43.25;;;;;14.03;59.59;101160.13;5023530;28;45521;-74
2022/03/03 09:47:16;;;;;;;;;101.50;95.75;;;;;13.99;59.40;101153.38;5023355;28;45346;-78
2022/03/03 09:49:42;;;;;;;;;63.00;49.75;;;;;13.66;59.99;101099.72;5028602;28;46273;-73
2022/03/03 09:52:16;;;;;;;;;58.00;46.75;;;;;13.73;59.46;101104.41;5030916;28;45268;-74
2022/03/03 09:54:43;;;;;;;;;58.50;48.00;;;;;14.08;59.31;101152.47;5032570;28;45501;-77
2022/03/03 09:57:09;;;;;;;;;58.75;47.50;;;;;14.05;59.16;101130.56;5028924;28;45454;-75
2022/03/03 09:59:35;;;;;;;;;56.50;45.50;;;;;14.21;59.51;101154.69;5027683;28;45954;-74
2022/03/03 10:02:06;;;;;;;;;51.00;41.25;;;;;14.14;59.25;101121.56;5034343;28;45565;-74
2022/03/03 10:04:32;;;;;;;;;62.00;48.75;;;;;14.20;58.84;101124.44;5035442;28;45491;-74
2022/03/03 10:07:09;;;;;;;;;60.25;44.50;;;;;13.05;58.84;100947.50;5035780;28;45315;-72
2022/03/03 10:10:21;;;;;;;;;56.75;46.75;;;;;14.44;58.81;101152.38;5027996;28;47504;-77
2022/03/03 10:12:23;;;;;;;;;59.25;48.00;;;;;14.53;58.29;101146.06;5018700;28;45497;-75
2022/03/03 10:14:49;;;;;;;;;59.75;50.00;;;;;14.64;58.20;101151.16;5033172;28;45533;-73
2022/03/03 10:17:15;;;;;;;;;56.50;47.25;;;;;14.27;58.03;101080.03;5031708;28;45379;-76
2022/03/03 10:19:57;;;;;;;;;58.75;47.50;;;;;14.54;57.39;101126.34;5031386;28;45491;-74
2022/03/03 10:22:42;;;;;;;;;54.75;44.75;;;;;14.77;57.46;101154.19;5016700;28;45487;-76
2022/03/03 10:25:27;;;;;;;;;58.33;46.33;;;;;14.79;57.38;101151.34;5025511;28;45471;-76
2022/03/03 10:27:52;;;;;;;;;63.50;48.25;;;;;14.62;57.21;101134.41;5018125;28;45493;-73
2022/03/03 10:30:17;;;;;;;;;73.25;56.00;;;;;14.35;58.11;101095.28;5038326;28;46991;-76
2022/03/03 10:32:43;;;;;;;;;71.25;57.00;;;;;14.59;58.27;101134.72;5031427;28;45446;-78
2022/03/03 10:35:14;;;;;;;;;75.00;60.00;;;;;14.52;58.47;101117.63;5020576;28;45496;-74
2022/03/03 10:37:42;;;;;;;;;58.75;48.00;;;;;14.64;57.96;101131.56;5031996;28;45538;-77
2022/03/03 10:40:11;;;;;;;;;58.50;47.75;;;;;14.65;57.94;101142.13;5033527;28;48614;-75
2022/03/03 10:42:41;;;;;;;;;61.50;49.50;;;;;14.75;57.39;101144.66;5033805;28;45238;-73
2022/03/03 10:45:10;;;;;;;;;59.00;48.50;;;;;14.75;57.15;101142.81;5028856;28;45497;-73
2022/03/03 10:47:36;;;;;;;;;56.75;45.75;;;;;14.43;57.43;101102.53;5024674;28;45522;-73
2022/03/03 10:50:03;;;;;;;;;53.75;44.75;;;;;14.77;57.17;101132.78;5031134;28;47876;-75
2022/03/03 10:52:31;;;;;;;;;53.33;41.67;;;;;14.88;56.74;101137.84;5029798;28;45260;-75
2022/03/03 10:55:05;;;;;;;;;56.50;44.75;;;;;14.94;56.58;101139.03;5031643;28;45493;-75
2022/03/03 10:57:51;;;;;;;;;80.50;65.25;;;;;14.78;56.50;101107.69;5035942;28;45710;-79
2022/03/03 11:00:19;;;;;;;;;71.00;55.25;;;;;14.98;56.57;101139.53;5021137;28;46870;-74
2022/03/03 11:02:48;;;;;;;;;54.75;43.50;;;;;14.90;56.17;101110.91;5020618;28;45530;-72
2022/03/03 11:05:15;;;;;;;;;54.00;42.75;;;;;14.72;55.77;101076.22;5028154;28;45686;-74
2022/03/03 11:07:43;;;;;;;;;50.50;41.00;;;;;15.02;56.03;101114.13;5032381;28;45556;-74
2022/03/03 11:10:12;;;;;;;;;53.75;46.00;;;;;15.19;55.72;101127.38;5019350;28;46234;-73